createdAt,value
2023-05-02T00:00:03.136Z,27.8
2023-05-02T00:10:02.372Z,28.1
2023-05-02T00:30:02.991Z,28.7
2023-05-02T00:40:02.945Z,29.2
2023-05-02T00:50:02.938Z,29.4
2023-05-02T01:00:03.032Z,29.8
2023-05-02T01:10:02.918Z,29.9
2023-05-02T01:20:03.227Z,30.1
2023-05-02T01:30:03.178Z,30.3
2023-05-02T01:40:03.103Z,30.6
2023-05-02T01:50:02.952Z,30.8
2023-05-02T02:00:03.051Z,31
2023-05-02T02:10:03.287Z,31
2023-05-02T02:20:02.385Z,31
2023-05-02T02:30:03.449Z,31.6
2023-05-02T02:40:03.282Z,31.8
2023-05-02T02:50:03.235Z,32.1
2023-05-02T03:00:03.130Z,32.2
2023-05-02T03:10:03.075Z,31.8
2023-05-02T03:20:03.199Z,32.2
2023-05-02T03:30:03.040Z,32.4
2023-05-02T03:40:03.228Z,32.5
2023-05-02T03:50:02.760Z,32.7
2023-05-02T04:00:02.841Z,32.6
2023-05-02T04:10:02.770Z,32.7
2023-05-02T04:20:05.185Z,32.4
2023-05-02T04:30:03.673Z,32.7
2023-05-02T04:40:02.824Z,32.5
2023-05-02T04:50:02.840Z,33.1
2023-05-02T05:00:02.765Z,32.9
2023-05-02T05:10:02.856Z,33.1
2023-05-02T05:20:03.055Z,32.8
2023-05-02T05:30:02.923Z,32.1
2023-05-02T05:40:03.010Z,31.8
2023-05-02T05:50:03.249Z,31.7
2023-05-02T06:00:03.798Z,31.4
2023-05-02T06:10:03.629Z,31.4
2023-05-02T06:20:02.706Z,31.4
2023-05-02T06:30:02.911Z,31.2
2023-05-02T06:40:03.154Z,31.2
2023-05-02T06:50:03.223Z,31.2
2023-05-02T07:00:03.350Z,31.2
2023-05-02T07:10:03.359Z,31.3
2023-05-02T07:20:02.574Z,31.4
2023-05-02T07:30:02.896Z,31.4
2023-05-02T07:40:03.077Z,31.2
2023-05-02T07:50:03.336Z,31.2
2023-05-02T08:00:02.748Z,31.1
2023-05-02T08:10:03.053Z,31.1
2023-05-02T08:20:03.182Z,31.1
2023-05-02T08:30:03.358Z,31.2
2023-05-02T08:40:02.716Z,31.2
2023-05-02T08:50:02.897Z,31.2
2023-05-02T09:00:02.845Z,31.2
2023-05-02T09:10:02.506Z,31.2
2023-05-02T09:20:02.286Z,31.6
2023-05-02T09:30:02.982Z,31.6
2023-05-02T09:40:02.896Z,31.8
2023-05-02T09:50:02.628Z,31.8
2023-05-02T10:00:02.382Z,31.5
2023-05-02T10:10:02.993Z,31.4
2023-05-02T10:20:02.828Z,31.4
2023-05-02T10:30:02.615Z,31.2
2023-05-02T10:40:02.284Z,31
2023-05-02T10:50:03.005Z,30.8
2023-05-02T11:00:02.694Z,30.7
2023-05-02T11:10:02.293Z,30.8
2023-05-02T11:20:03.163Z,30.6
2023-05-02T11:30:02.858Z,30.6
2023-05-02T11:40:02.559Z,30.6
2023-05-02T11:50:02.240Z,30.5
2023-05-02T12:00:02.841Z,30.4
2023-05-02T12:10:02.495Z,30.4
2023-05-02T12:20:02.324Z,30.5
2023-05-02T12:30:03.645Z,30.5
2023-05-02T12:40:02.926Z,30.4
2023-05-02T12:50:03.194Z,30.5
2023-05-02T13:00:03.498Z,30.4
2023-05-02T13:10:02.749Z,30.4
2023-05-02T13:20:02.973Z,30.4
2023-05-02T13:30:04.816Z,30.3
2023-05-02T13:40:03.494Z,30.4
2023-05-02T13:50:02.729Z,30.4
2023-05-02T14:00:03.070Z,30.4
2023-05-02T14:10:03.437Z,30.5
2023-05-02T14:20:02.753Z,30.4
2023-05-02T14:30:03.082Z,30.3
2023-05-02T14:40:03.341Z,30.4
2023-05-02T14:50:02.593Z,30.4
2023-05-02T15:00:02.797Z,30.4
2023-05-02T15:10:03.044Z,30.4
2023-05-02T15:20:03.410Z,30.4
2023-05-02T15:30:02.719Z,30.4
2023-05-02T15:40:03.144Z,28.6
2023-05-02T15:50:03.225Z,26.7
2023-05-02T16:00:03.549Z,26.5
2023-05-02T16:10:02.782Z,26.7
2023-05-02T16:20:03.070Z,26.6
2023-05-02T16:30:03.357Z,27.4
2023-05-02T16:40:02.784Z,27.8
2023-05-02T16:50:03.025Z,26.6
2023-05-02T17:00:03.193Z,26.6
2023-05-02T17:10:03.431Z,26.5
2023-05-02T17:20:02.835Z,26.4
2023-05-02T17:30:02.976Z,26.6
2023-05-02T17:40:03.262Z,26.8
2023-05-02T17:50:03.596Z,26.7
2023-05-02T18:00:02.741Z,26.8
2023-05-02T18:10:02.868Z,26.9
2023-05-02T18:20:03.101Z,26.8
2023-05-02T18:30:03.025Z,26.7
2023-05-02T18:40:02.771Z,26.7
2023-05-02T18:50:02.569Z,26.9
2023-05-02T19:00:02.328Z,26.8
2023-05-02T19:10:03.173Z,27
2023-05-02T19:20:03.071Z,27.1
2023-05-02T19:30:02.874Z,27.1
2023-05-02T19:40:02.561Z,27.1
2023-05-02T19:50:02.334Z,27.1
2023-05-02T20:00:03.307Z,27.1
2023-05-02T20:10:02.391Z,27.1
2023-05-02T20:20:02.677Z,27.2
2023-05-02T20:30:02.865Z,27.4
2023-05-02T20:40:04.378Z,27.7
2023-05-02T20:50:02.565Z,27.8
2023-05-02T21:00:02.681Z,27.6
2023-05-02T21:10:02.717Z,27.6
2023-05-02T21:20:03.005Z,27.6
2023-05-02T21:30:03.005Z,27.9
2023-05-02T21:40:03.163Z,27.9
2023-05-02T21:50:03.264Z,27.2
2023-05-02T22:00:03.377Z,28.1
2023-05-02T22:10:02.389Z,27.1
2023-05-02T22:20:02.703Z,26.8
2023-05-02T22:30:02.709Z,26.9
2023-05-02T22:40:02.682Z,26.9
2023-05-02T22:50:02.864Z,26.8
2023-05-02T23:00:03.118Z,26.8
2023-05-02T23:10:03.510Z,26.7
2023-05-02T23:20:02.918Z,26.6
2023-05-02T23:30:02.999Z,26.9
2023-05-02T23:40:03.051Z,27.1
2023-05-02T23:50:03.585Z,26.8
